sensor_id;sensor_type;location;lat;lon;timestamp;P1;durP1;ratioP1;P2;durP2;ratioP2
49758;SDS011;70329;45.524;10.194;2023-06-14T00:00:22;13.55;;;9.65;;
49758;SDS011;70329;45.524;10.194;2023-06-14T00:02:48;13.23;;;9.50;;
49758;SDS011;70329;45.524;10.194;2023-06-14T00:05:15;18.67;;;9.77;;
49758;SDS011;70329;45.524;10.194;2023-06-14T00:07:42;17.42;;;9.38;;
49758;SDS011;70329;45.524;10.194;2023-06-14T00:10:09;15.45;;;9.25;;
49758;SDS011;70329;45.524;10.194;2023-06-14T00:12:37;13.35;;;8.88;;
49758;SDS011;70329;45.524;10.194;2023-06-14T00:15:05;13.38;;;8.20;;
49758;SDS011;70329;45.524;10.194;2023-06-14T00:17:32;13.60;;;9.07;;
49758;SDS011;70329;45.524;10.194;2023-06-14T00:19:58;16.67;;;9.93;;
49758;SDS011;70329;45.524;10.194;2023-06-14T00:22:25;15.18;;;8.73;;
49758;SDS011;70329;45.524;10.194;2023-06-14T00:24:52;16.98;;;9.25;;
49758;SDS011;70329;45.524;10.194;2023-06-14T00:27:18;15.30;;;8.93;;
49758;SDS011;70329;45.524;10.194;2023-06-14T00:29:45;15.27;;;9.98;;
49758;SDS011;70329;45.524;10.194;2023-06-14T00:32:12;13.15;;;9.70;;
49758;SDS011;70329;45.524;10.194;2023-06-14T00:34:39;15.80;;;9.13;;
49758;SDS011;70329;45.524;10.194;2023-06-14T00:37:05;15.57;;;9.20;;
49758;SDS011;70329;45.524;10.194;2023-06-14T00:39:32;13.30;;;8.75;;
49758;SDS011;70329;45.524;10.194;2023-06-14T00:41:59;11.48;;;7.82;;
49758;SDS011;70329;45.524;10.194;2023-06-14T00:46:52;12.65;;;8.15;;
49758;SDS011;70329;45.524;10.194;2023-06-14T00:49:18;12.45;;;7.28;;
49758;SDS011;70329;45.524;10.194;2023-06-14T00:51:45;10.10;;;7.40;;
49758;SDS011;70329;45.524;10.194;2023-06-14T00:54:11;10.20;;;6.90;;
49758;SDS011;70329;45.524;10.194;2023-06-14T00:56:38;11.48;;;6.65;;
49758;SDS011;70329;45.524;10.194;2023-06-14T00:59:05;13.20;;;6.65;;
49758;SDS011;70329;45.524;10.194;2023-06-14T01:01:31;10.15;;;6.50;;
49758;SDS011;70329;45.524;10.194;2023-06-14T01:04:00;7.70;;;6.07;;
49758;SDS011;70329;45.524;10.194;2023-06-14T01:06:46;8.13;;;5.80;;
49758;SDS011;70329;45.524;10.194;2023-06-14T01:10:04;10.05;;;6.05;;
49758;SDS011;70329;45.524;10.194;2023-06-14T01:15:12;11.57;;;6.70;;
49758;SDS011;70329;45.524;10.194;2023-06-14T01:17:40;12.25;;;7.45;;
49758;SDS011;70329;45.524;10.194;2023-06-14T01:20:10;14.30;;;7.35;;
49758;SDS011;70329;45.524;10.194;2023-06-14T01:23:13;12.18;;;7.68;;
49758;SDS011;70329;45.524;10.194;2023-06-14T01:25:33;12.15;;;7.47;;
49758;SDS011;70329;45.524;10.194;2023-06-14T01:28:03;13.52;;;8.00;;
49758;SDS011;70329;45.524;10.194;2023-06-14T01:30:39;11.07;;;7.60;;
49758;SDS011;70329;45.524;10.194;2023-06-14T01:33:16;15.85;;;8.07;;
49758;SDS011;70329;45.524;10.194;2023-06-14T01:35:46;13.13;;;7.93;;
49758;SDS011;70329;45.524;10.194;2023-06-14T01:38:15;13.25;;;8.13;;
49758;SDS011;70329;45.524;10.194;2023-06-14T01:40:44;14.57;;;7.65;;
49758;SDS011;70329;45.524;10.194;2023-06-14T01:43:14;13.90;;;7.88;;
49758;SDS011;70329;45.524;10.194;2023-06-14T01:45:42;11.18;;;7.30;;
49758;SDS011;70329;45.524;10.194;2023-06-14T01:48:11;11.68;;;7.47;;
49758;SDS011;70329;45.524;10.194;2023-06-14T01:50:38;12.68;;;7.10;;
49758;SDS011;70329;45.524;10.194;2023-06-14T01:53:08;10.45;;;6.43;;
49758;SDS011;70329;45.524;10.194;2023-06-14T01:55:36;12.70;;;6.65;;
49758;SDS011;70329;45.524;10.194;2023-06-14T01:58:09;9.63;;;6.53;;
49758;SDS011;70329;45.524;10.194;2023-06-14T02:00:36;9.80;;;6.40;;
49758;SDS011;70329;45.524;10.194;2023-06-14T02:03:02;11.52;;;6.30;;
49758;SDS011;70329;45.524;10.194;2023-06-14T02:05:32;11.35;;;6.35;;
49758;SDS011;70329;45.524;10.194;2023-06-14T02:07:59;9.90;;;6.13;;
49758;SDS011;70329;45.524;10.194;2023-06-14T02:10:24;11.55;;;5.90;;
49758;SDS011;70329;45.524;10.194;2023-06-14T02:12:49;10.70;;;6.80;;
49758;SDS011;70329;45.524;10.194;2023-06-14T02:15:16;10.10;;;6.77;;
49758;SDS011;70329;45.524;10.194;2023-06-14T02:17:44;11.70;;;7.32;;
49758;SDS011;70329;45.524;10.194;2023-06-14T02:20:11;14.23;;;6.85;;
49758;SDS011;70329;45.524;10.194;2023-06-14T02:22:38;10.63;;;5.97;;
49758;SDS011;70329;45.524;10.194;2023-06-14T02:25:05;9.18;;;5.97;;
49758;SDS011;70329;45.524;10.194;2023-06-14T02:27:33;11.60;;;7.20;;
49758;SDS011;70329;45.524;10.194;2023-06-14T02:29:59;10.75;;;7.43;;
49758;SDS011;70329;45.524;10.194;2023-06-14T02:32:27;12.85;;;7.32;;
49758;SDS011;70329;45.524;10.194;2023-06-14T02:34:53;11.18;;;7.22;;
49758;SDS011;70329;45.524;10.194;2023-06-14T02:37:21;11.23;;;6.85;;
49758;SDS011;70329;45.524;10.194;2023-06-14T02:39:48;12.35;;;6.97;;
49758;SDS011;70329;45.524;10.194;2023-06-14T02:42:14;11.52;;;7.15;;
49758;SDS011;70329;45.524;10.194;2023-06-14T02:44:41;10.60;;;6.97;;
49758;SDS011;70329;45.524;10.194;2023-06-14T02:47:07;10.13;;;6.47;;
49758;SDS011;70329;45.524;10.194;2023-06-14T02:49:34;14.55;;;7.45;;
49758;SDS011;70329;45.524;10.194;2023-06-14T02:52:00;10.30;;;6.90;;
49758;SDS011;70329;45.524;10.194;2023-06-14T02:54:27;11.20;;;6.38;;
49758;SDS011;70329;45.524;10.194;2023-06-14T02:56:54;9.52;;;6.40;;
49758;SDS011;70329;45.524;10.194;2023-06-14T02:59:20;10.25;;;6.63;;
49758;SDS011;70329;45.524;10.194;2023-06-14T03:01:48;9.30;;;6.22;;
49758;SDS011;70329;45.524;10.194;2023-06-14T03:04:14;10.10;;;6.35;;
49758;SDS011;70329;45.524;10.194;2023-06-14T03:06:41;9.70;;;5.90;;
49758;SDS011;70329;45.524;10.194;2023-06-14T03:09:10;8.98;;;5.90;;
49758;SDS011;70329;45.524;10.194;2023-06-14T03:14:03;8.25;;;5.60;;
49758;SDS011;70329;45.524;10.194;2023-06-14T03:16:30;8.02;;;5.50;;
49758;SDS011;70329;45.524;10.194;2023-06-14T03:18:57;7.80;;;5.03;;
49758;SDS011;70329;45.524;10.194;2023-06-14T03:21:24;8.32;;;5.35;;
49758;SDS011;70329;45.524;10.194;2023-06-14T03:23:52;10.77;;;5.20;;
49758;SDS011;70329;45.524;10.194;2023-06-14T03:26:19;11.32;;;6.30;;
49758;SDS011;70329;45.524;10.194;2023-06-14T03:28:46;8.40;;;5.40;;
49758;SDS011;70329;45.524;10.194;2023-06-14T03:31:13;8.15;;;5.65;;
49758;SDS011;70329;45.524;10.194;2023-06-14T03:33:41;10.15;;;5.53;;
49758;SDS011;70329;45.524;10.194;2023-06-14T03:36:08;10.40;;;5.93;;
49758;SDS011;70329;45.524;10.194;2023-06-14T03:38:34;10.68;;;6.25;;
49758;SDS011;70329;45.524;10.194;2023-06-14T03:41:00;8.57;;;5.47;;
49758;SDS011;70329;45.524;10.194;2023-06-14T03:43:25;9.95;;;5.97;;
49758;SDS011;70329;45.524;10.194;2023-06-14T03:45:51;10.77;;;5.80;;
49758;SDS011;70329;45.524;10.194;2023-06-14T03:48:16;8.03;;;5.20;;
49758;SDS011;70329;45.524;10.194;2023-06-14T03:50:42;9.63;;;5.67;;
49758;SDS011;70329;45.524;10.194;2023-06-14T03:53:09;8.63;;;5.63;;
49758;SDS011;70329;45.524;10.194;2023-06-14T03:55:36;8.52;;;5.63;;
49758;SDS011;70329;45.524;10.194;2023-06-14T03:58:04;11.75;;;6.22;;
49758;SDS011;70329;45.524;10.194;2023-06-14T04:00:31;8.90;;;5.15;;
49758;SDS011;70329;45.524;10.194;2023-06-14T04:02:58;8.73;;;5.60;;
49758;SDS011;70329;45.524;10.194;2023-06-14T04:05:25;9.00;;;5.35;;
49758;SDS011;70329;45.524;10.194;2023-06-14T04:11:07;10.90;;;6.05;;
49758;SDS011;70329;45.524;10.194;2023-06-14T04:13:34;8.57;;;5.63;;
49758;SDS011;70329;45.524;10.194;2023-06-14T04:16:01;8.55;;;5.60;;
49758;SDS011;70329;45.524;10.194;2023-06-14T04:18:28;9.82;;;5.40;;
49758;SDS011;70329;45.524;10.194;2023-06-14T04:20:54;9.88;;;5.20;;
49758;SDS011;70329;45.524;10.194;2023-06-14T04:23:21;9.45;;;5.50;;
49758;SDS011;70329;45.524;10.194;2023-06-14T04:25:48;7.17;;;4.90;;
49758;SDS011;70329;45.524;10.194;2023-06-14T04:28:15;8.68;;;5.22;;
49758;SDS011;70329;45.524;10.194;2023-06-14T04:30:43;11.25;;;5.78;;
49758;SDS011;70329;45.524;10.194;2023-06-14T04:33:10;10.57;;;5.50;;
49758;SDS011;70329;45.524;10.194;2023-06-14T04:35:37;8.65;;;5.10;;
49758;SDS011;70329;45.524;10.194;2023-06-14T04:38:05;9.77;;;5.60;;
49758;SDS011;70329;45.524;10.194;2023-06-14T04:40:35;8.93;;;5.50;;
49758;SDS011;70329;45.524;10.194;2023-06-14T04:43:09;10.40;;;5.50;;
49758;SDS011;70329;45.524;10.194;2023-06-14T04:45:38;6.80;;;5.03;;
49758;SDS011;70329;45.524;10.194;2023-06-14T04:48:06;12.73;;;5.40;;
49758;SDS011;70329;45.524;10.194;2023-06-14T04:50:33;13.65;;;5.63;;
49758;SDS011;70329;45.524;10.194;2023-06-14T04:52:58;8.43;;;4.95;;
49758;SDS011;70329;45.524;10.194;2023-06-14T04:55:32;11.55;;;5.55;;
49758;SDS011;70329;45.524;10.194;2023-06-14T04:58:04;11.93;;;5.78;;
49758;SDS011;70329;45.524;10.194;2023-06-14T05:00:38;11.15;;;5.78;;
49758;SDS011;70329;45.524;10.194;2023-06-14T05:03:05;12.37;;;4.80;;
49758;SDS011;70329;45.524;10.194;2023-06-14T05:05:33;10.48;;;5.18;;
49758;SDS011;70329;45.524;10.194;2023-06-14T05:08:00;10.50;;;5.13;;
49758;SDS011;70329;45.524;10.194;2023-06-14T05:10:25;10.57;;;4.82;;
49758;SDS011;70329;45.524;10.194;2023-06-14T05:12:51;10.60;;;5.07;;
49758;SDS011;70329;45.524;10.194;2023-06-14T05:15:18;9.70;;;5.47;;
49758;SDS011;70329;45.524;10.194;2023-06-14T05:17:45;11.82;;;5.25;;
49758;SDS011;70329;45.524;10.194;2023-06-14T05:20:19;13.95;;;5.50;;
49758;SDS011;70329;45.524;10.194;2023-06-14T05:22:45;8.32;;;5.00;;
49758;SDS011;70329;45.524;10.194;2023-06-14T05:27:39;7.60;;;4.63;;
49758;SDS011;70329;45.524;10.194;2023-06-14T05:30:08;11.20;;;4.70;;
49758;SDS011;70329;45.524;10.194;2023-06-14T05:32:35;8.98;;;4.28;;
49758;SDS011;70329;45.524;10.194;2023-06-14T05:35:01;7.22;;;4.75;;
49758;SDS011;70329;45.524;10.194;2023-06-14T05:37:28;9.00;;;4.95;;
49758;SDS011;70329;45.524;10.194;2023-06-14T05:39:54;9.55;;;4.82;;
49758;SDS011;70329;45.524;10.194;2023-06-14T05:42:21;10.10;;;5.63;;
49758;SDS011;70329;45.524;10.194;2023-06-14T05:44:48;8.13;;;4.70;;
49758;SDS011;70329;45.524;10.194;2023-06-14T05:47:15;11.05;;;4.72;;
49758;SDS011;70329;45.524;10.194;2023-06-14T05:49:41;7.35;;;4.50;;
49758;SDS011;70329;45.524;10.194;2023-06-14T05:52:09;9.82;;;4.93;;
49758;SDS011;70329;45.524;10.194;2023-06-14T05:54:36;9.73;;;4.95;;
49758;SDS011;70329;45.524;10.194;2023-06-14T05:57:03;8.80;;;5.00;;
49758;SDS011;70329;45.524;10.194;2023-06-14T05:59:31;9.57;;;4.95;;
49758;SDS011;70329;45.524;10.194;2023-06-14T06:01:58;11.73;;;4.88;;
49758;SDS011;70329;45.524;10.194;2023-06-14T06:06:51;12.70;;;5.38;;
49758;SDS011;70329;45.524;10.194;2023-06-14T06:09:17;10.25;;;4.82;;
49758;SDS011;70329;45.524;10.194;2023-06-14T06:11:45;10.90;;;4.90;;
49758;SDS011;70329;45.524;10.194;2023-06-14T06:14:11;13.00;;;5.07;;
49758;SDS011;70329;45.524;10.194;2023-06-14T06:16:37;11.75;;;4.75;;
49758;SDS011;70329;45.524;10.194;2023-06-14T06:19:03;8.23;;;4.83;;
49758;SDS011;70329;45.524;10.194;2023-06-14T06:23:57;10.05;;;4.47;;
49758;SDS011;70329;45.524;10.194;2023-06-14T06:26:24;11.65;;;5.18;;
49758;SDS011;70329;45.524;10.194;2023-06-14T06:28:52;8.30;;;4.53;;
49758;SDS011;70329;45.524;10.194;2023-06-14T06:31:18;11.23;;;4.82;;
49758;SDS011;70329;45.524;10.194;2023-06-14T06:33:43;9.17;;;4.47;;
49758;SDS011;70329;45.524;10.194;2023-06-14T06:36:09;9.47;;;5.20;;
49758;SDS011;70329;45.524;10.194;2023-06-14T06:38:34;7.70;;;4.60;;
49758;SDS011;70329;45.524;10.194;2023-06-14T06:41:00;9.65;;;4.80;;
49758;SDS011;70329;45.524;10.194;2023-06-14T06:43:25;8.50;;;4.73;;
49758;SDS011;70329;45.524;10.194;2023-06-14T06:45:52;7.57;;;4.88;;
49758;SDS011;70329;45.524;10.194;2023-06-14T06:48:19;11.63;;;5.00;;
49758;SDS011;70329;45.524;10.194;2023-06-14T06:50:46;11.13;;;5.53;;
49758;SDS011;70329;45.524;10.194;2023-06-14T06:53:12;7.78;;;5.20;;
49758;SDS011;70329;45.524;10.194;2023-06-14T06:55:39;8.82;;;5.60;;
49758;SDS011;70329;45.524;10.194;2023-06-14T06:58:05;12.75;;;4.80;;
49758;SDS011;70329;45.524;10.194;2023-06-14T07:00:32;10.18;;;5.97;;
49758;SDS011;70329;45.524;10.194;2023-06-14T07:03:01;12.75;;;6.50;;
49758;SDS011;70329;45.524;10.194;2023-06-14T07:05:28;12.02;;;5.43;;
49758;SDS011;70329;45.524;10.194;2023-06-14T07:07:54;7.28;;;5.57;;
49758;SDS011;70329;45.524;10.194;2023-06-14T07:10:21;11.10;;;5.37;;
49758;SDS011;70329;45.524;10.194;2023-06-14T07:12:47;10.77;;;5.82;;
49758;SDS011;70329;45.524;10.194;2023-06-14T07:15:13;8.40;;;5.40;;
49758;SDS011;70329;45.524;10.194;2023-06-14T07:17:39;9.55;;;6.15;;
49758;SDS011;70329;45.524;10.194;2023-06-14T07:20:06;10.43;;;6.05;;
49758;SDS011;70329;45.524;10.194;2023-06-14T07:22:40;8.25;;;4.95;;
49758;SDS011;70329;45.524;10.194;2023-06-14T07:25:11;11.68;;;5.20;;
49758;SDS011;70329;45.524;10.194;2023-06-14T07:27:40;10.77;;;5.82;;
49758;SDS011;70329;45.524;10.194;2023-06-14T07:30:08;9.32;;;5.20;;
49758;SDS011;70329;45.524;10.194;2023-06-14T07:32:36;8.13;;;5.35;;
49758;SDS011;70329;45.524;10.194;2023-06-14T07:35:02;10.43;;;6.25;;
49758;SDS011;70329;45.524;10.194;2023-06-14T07:37:29;16.38;;;6.07;;
49758;SDS011;70329;45.524;10.194;2023-06-14T07:39:56;12.48;;;6.20;;
49758;SDS011;70329;45.524;10.194;2023-06-14T07:42:23;12.80;;;6.40;;
49758;SDS011;70329;45.524;10.194;2023-06-14T07:44:50;9.77;;;6.20;;
49758;SDS011;70329;45.524;10.194;2023-06-14T07:47:18;16.55;;;6.28;;
49758;SDS011;70329;45.524;10.194;2023-06-14T07:49:44;14.90;;;6.85;;
49758;SDS011;70329;45.524;10.194;2023-06-14T07:52:11;13.65;;;6.85;;
49758;SDS011;70329;45.524;10.194;2023-06-14T07:54:39;15.20;;;7.95;;
49758;SDS011;70329;45.524;10.194;2023-06-14T07:57:07;14.45;;;7.10;;
49758;SDS011;70329;45.524;10.194;2023-06-14T07:59:33;10.57;;;6.60;;
49758;SDS011;70329;45.524;10.194;2023-06-14T08:02:00;10.05;;;6.50;;
49758;SDS011;70329;45.524;10.194;2023-06-14T08:04:27;15.18;;;7.00;;
49758;SDS011;70329;45.524;10.194;2023-06-14T08:06:53;11.57;;;6.30;;
49758;SDS011;70329;45.524;10.194;2023-06-14T08:09:20;11.13;;;6.65;;
49758;SDS011;70329;45.524;10.194;2023-06-14T08:11:47;12.85;;;6.75;;
49758;SDS011;70329;45.524;10.194;2023-06-14T08:14:13;12.68;;;6.65;;
49758;SDS011;70329;45.524;10.194;2023-06-14T08:16:40;14.48;;;7.28;;
49758;SDS011;70329;45.524;10.194;2023-06-14T08:19:06;16.08;;;7.10;;
49758;SDS011;70329;45.524;10.194;2023-06-14T08:21:34;11.65;;;6.35;;
49758;SDS011;70329;45.524;10.194;2023-06-14T08:24:02;15.07;;;6.93;;
49758;SDS011;70329;45.524;10.194;2023-06-14T08:26:29;10.45;;;6.63;;
49758;SDS011;70329;45.524;10.194;2023-06-14T08:28:55;14.77;;;7.13;;
49758;SDS011;70329;45.524;10.194;2023-06-14T08:31:21;12.10;;;6.85;;
49758;SDS011;70329;45.524;10.194;2023-06-14T08:33:47;14.00;;;7.82;;
49758;SDS011;70329;45.524;10.194;2023-06-14T08:36:14;11.27;;;6.90;;
49758;SDS011;70329;45.524;10.194;2023-06-14T08:38:41;11.35;;;7.20;;
49758;SDS011;70329;45.524;10.194;2023-06-14T08:41:08;15.68;;;8.50;;
49758;SDS011;70329;45.524;10.194;2023-06-14T08:43:39;20.00;;;8.73;;
49758;SDS011;70329;45.524;10.194;2023-06-14T08:46:06;15.88;;;8.55;;
49758;SDS011;70329;45.524;10.194;2023-06-14T08:48:36;14.07;;;7.72;;
49758;SDS011;70329;45.524;10.194;2023-06-14T08:51:03;20.08;;;9.43;;
49758;SDS011;70329;45.524;10.194;2023-06-14T08:53:33;14.02;;;7.90;;
49758;SDS011;70329;45.524;10.194;2023-06-14T08:56:02;18.85;;;8.75;;
49758;SDS011;70329;45.524;10.194;2023-06-14T08:58:31;18.73;;;10.98;;
49758;SDS011;70329;45.524;10.194;2023-06-14T09:01:03;17.60;;;10.98;;
49758;SDS011;70329;45.524;10.194;2023-06-14T09:03:31;12.13;;;7.65;;
49758;SDS011;70329;45.524;10.194;2023-06-14T09:05:59;17.63;;;10.68;;
49758;SDS011;70329;45.524;10.194;2023-06-14T09:08:27;14.77;;;10.20;;
49758;SDS011;70329;45.524;10.194;2023-06-14T09:10:56;18.35;;;10.65;;
49758;SDS011;70329;45.524;10.194;2023-06-14T09:13:23;21.30;;;9.93;;
49758;SDS011;70329;45.524;10.194;2023-06-14T09:15:50;15.25;;;7.07;;
49758;SDS011;70329;45.524;10.194;2023-06-14T09:18:17;12.00;;;7.55;;
49758;SDS011;70329;45.524;10.194;2023-06-14T09:20:46;12.75;;;7.45;;
49758;SDS011;70329;45.524;10.194;2023-06-14T09:23:20;13.50;;;8.38;;
49758;SDS011;70329;45.524;10.194;2023-06-14T09:25:48;14.73;;;7.00;;
49758;SDS011;70329;45.524;10.194;2023-06-14T09:28:14;10.63;;;5.60;;
49758;SDS011;70329;45.524;10.194;2023-06-14T09:30:41;9.70;;;5.85;;
49758;SDS011;70329;45.524;10.194;2023-06-14T09:33:08;11.20;;;5.93;;
49758;SDS011;70329;45.524;10.194;2023-06-14T09:35:35;12.57;;;5.38;;
49758;SDS011;70329;45.524;10.194;2023-06-14T09:38:02;16.90;;;6.85;;
49758;SDS011;70329;45.524;10.194;2023-06-14T09:40:29;16.20;;;5.40;;
49758;SDS011;70329;45.524;10.194;2023-06-14T09:43:00;11.57;;;5.00;;
49758;SDS011;70329;45.524;10.194;2023-06-14T09:45:28;9.20;;;5.00;;
49758;SDS011;70329;45.524;10.194;2023-06-14T09:47:56;12.00;;;5.35;;
49758;SDS011;70329;45.524;10.194;2023-06-14T09:50:23;12.15;;;5.00;;
49758;SDS011;70329;45.524;10.194;2023-06-14T09:52:50;11.02;;;4.75;;
49758;SDS011;70329;45.524;10.194;2023-06-14T09:55:18;17.88;;;5.30;;
49758;SDS011;70329;45.524;10.194;2023-06-14T10:00:12;8.23;;;5.00;;
49758;SDS011;70329;45.524;10.194;2023-06-14T10:02:40;8.90;;;4.40;;
49758;SDS011;70329;45.524;10.194;2023-06-14T10:05:12;10.30;;;5.00;;
49758;SDS011;70329;45.524;10.194;2023-06-14T10:10:07;12.37;;;4.77;;
49758;SDS011;70329;45.524;10.194;2023-06-14T10:12:34;10.35;;;4.95;;
49758;SDS011;70329;45.524;10.194;2023-06-14T10:15:00;9.43;;;5.00;;
49758;SDS011;70329;45.524;10.194;2023-06-14T10:17:42;9.13;;;5.00;;
49758;SDS011;70329;45.524;10.194;2023-06-14T10:25:36;9.18;;;4.68;;
49758;SDS011;70329;45.524;10.194;2023-06-14T10:28:17;8.25;;;4.68;;
49758;SDS011;70329;45.524;10.194;2023-06-14T10:39:10;13.75;;;5.20;;
49758;SDS011;70329;45.524;10.194;2023-06-14T10:41:40;13.05;;;5.45;;
49758;SDS011;70329;45.524;10.194;2023-06-14T10:46:52;9.60;;;4.57;;
49758;SDS011;70329;45.524;10.194;2023-06-14T10:52:12;8.05;;;5.28;;
49758;SDS011;70329;45.524;10.194;2023-06-14T10:57:38;10.23;;;5.75;;
49758;SDS011;70329;45.524;10.194;2023-06-14T11:00:06;7.07;;;4.63;;
49758;SDS011;70329;45.524;10.194;2023-06-14T11:05:51;14.50;;;7.15;;
49758;SDS011;70329;45.524;10.194;2023-06-14T11:11:22;9.95;;;5.85;;
49758;SDS011;70329;45.524;10.194;2023-06-14T11:13:50;14.38;;;7.00;;
49758;SDS011;70329;45.524;10.194;2023-06-14T11:16:17;15.93;;;6.38;;
49758;SDS011;70329;45.524;10.194;2023-06-14T11:18:47;8.50;;;5.65;;
49758;SDS011;70329;45.524;10.194;2023-06-14T11:21:18;13.52;;;7.13;;
49758;SDS011;70329;45.524;10.194;2023-06-14T11:23:54;13.60;;;6.00;;
49758;SDS011;70329;45.524;10.194;2023-06-14T11:26:25;11.00;;;5.75;;
49758;SDS011;70329;45.524;10.194;2023-06-14T11:28:56;10.30;;;5.32;;
49758;SDS011;70329;45.524;10.194;2023-06-14T11:31:23;7.68;;;5.05;;
49758;SDS011;70329;45.524;10.194;2023-06-14T11:36:20;13.95;;;6.35;;
49758;SDS011;70329;45.524;10.194;2023-06-14T11:38:46;11.32;;;6.05;;
49758;SDS011;70329;45.524;10.194;2023-06-14T11:41:13;9.38;;;5.60;;
49758;SDS011;70329;45.524;10.194;2023-06-14T11:43:39;7.55;;;4.53;;
49758;SDS011;70329;45.524;10.194;2023-06-14T11:46:12;7.80;;;4.05;;
49758;SDS011;70329;45.524;10.194;2023-06-14T11:48:41;10.48;;;4.60;;
49758;SDS011;70329;45.524;10.194;2023-06-14T11:51:09;7.18;;;3.92;;
49758;SDS011;70329;45.524;10.194;2023-06-14T11:53:35;8.88;;;4.60;;
49758;SDS011;70329;45.524;10.194;2023-06-14T11:56:03;5.20;;;3.97;;
49758;SDS011;70329;45.524;10.194;2023-06-14T11:58:29;8.55;;;4.65;;
49758;SDS011;70329;45.524;10.194;2023-06-14T12:00:55;11.13;;;4.90;;
49758;SDS011;70329;45.524;10.194;2023-06-14T12:03:25;8.77;;;5.22;;
49758;SDS011;70329;45.524;10.194;2023-06-14T12:06:04;13.15;;;5.07;;
49758;SDS011;70329;45.524;10.194;2023-06-14T12:08:36;13.52;;;5.20;;
49758;SDS011;70329;45.524;10.194;2023-06-14T12:11:15;12.13;;;6.35;;
49758;SDS011;70329;45.524;10.194;2023-06-14T12:13:43;8.90;;;5.70;;
49758;SDS011;70329;45.524;10.194;2023-06-14T12:16:10;9.82;;;5.25;;
49758;SDS011;70329;45.524;10.194;2023-06-14T12:18:38;10.80;;;6.05;;
49758;SDS011;70329;45.524;10.194;2023-06-14T12:21:07;7.93;;;5.13;;
49758;SDS011;70329;45.524;10.194;2023-06-14T12:23:44;9.45;;;5.10;;
49758;SDS011;70329;45.524;10.194;2023-06-14T12:28:46;9.93;;;3.47;;
49758;SDS011;70329;45.524;10.194;2023-06-14T12:31:14;6.43;;;3.60;;
49758;SDS011;70329;45.524;10.194;2023-06-14T12:33:42;9.10;;;4.63;;
49758;SDS011;70329;45.524;10.194;2023-06-14T12:36:09;9.18;;;5.28;;
49758;SDS011;70329;45.524;10.194;2023-06-14T12:38:37;8.15;;;5.40;;
49758;SDS011;70329;45.524;10.194;2023-06-14T12:41:04;8.93;;;4.80;;
49758;SDS011;70329;45.524;10.194;2023-06-14T12:43:31;10.02;;;6.13;;
49758;SDS011;70329;45.524;10.194;2023-06-14T12:45:57;13.10;;;5.93;;
49758;SDS011;70329;45.524;10.194;2023-06-14T12:48:24;12.93;;;7.57;;
49758;SDS011;70329;45.524;10.194;2023-06-14T12:50:53;16.88;;;8.57;;
49758;SDS011;70329;45.524;10.194;2023-06-14T12:53:20;10.00;;;6.00;;
49758;SDS011;70329;45.524;10.194;2023-06-14T12:55:47;15.85;;;8.70;;
49758;SDS011;70329;45.524;10.194;2023-06-14T12:58:13;14.80;;;7.78;;
49758;SDS011;70329;45.524;10.194;2023-06-14T13:00:40;10.93;;;7.50;;
49758;SDS011;70329;45.524;10.194;2023-06-14T13:03:07;11.45;;;7.35;;
49758;SDS011;70329;45.524;10.194;2023-06-14T13:05:34;12.68;;;8.50;;
49758;SDS011;70329;45.524;10.194;2023-06-14T13:08:00;13.82;;;7.60;;
49758;SDS011;70329;45.524;10.194;2023-06-14T13:10:27;14.15;;;7.75;;
49758;SDS011;70329;45.524;10.194;2023-06-14T13:12:54;12.38;;;7.72;;
49758;SDS011;70329;45.524;10.194;2023-06-14T13:15:21;13.32;;;6.18;;
49758;SDS011;70329;45.524;10.194;2023-06-14T13:17:47;10.57;;;6.85;;
49758;SDS011;70329;45.524;10.194;2023-06-14T13:20:14;16.77;;;9.48;;
49758;SDS011;70329;45.524;10.194;2023-06-14T13:22:41;12.23;;;8.02;;
49758;SDS011;70329;45.524;10.194;2023-06-14T13:25:06;20.75;;;11.73;;
49758;SDS011;70329;45.524;10.194;2023-06-14T13:27:34;17.73;;;10.38;;
49758;SDS011;70329;45.524;10.194;2023-06-14T13:30:02;13.07;;;9.75;;
49758;SDS011;70329;45.524;10.194;2023-06-14T13:32:30;12.50;;;8.48;;
49758;SDS011;70329;45.524;10.194;2023-06-14T13:34:55;12.75;;;8.30;;
49758;SDS011;70329;45.524;10.194;2023-06-14T13:39:47;14.98;;;10.05;;
49758;SDS011;70329;45.524;10.194;2023-06-14T13:42:14;15.80;;;8.00;;
49758;SDS011;70329;45.524;10.194;2023-06-14T13:44:40;12.13;;;7.68;;
49758;SDS011;70329;45.524;10.194;2023-06-14T13:47:07;13.48;;;7.78;;
49758;SDS011;70329;45.524;10.194;2023-06-14T13:49:33;12.25;;;7.30;;
49758;SDS011;70329;45.524;10.194;2023-06-14T13:52:01;13.65;;;7.57;;
49758;SDS011;70329;45.524;10.194;2023-06-14T13:54:28;9.48;;;6.32;;
49758;SDS011;70329;45.524;10.194;2023-06-14T13:56:54;11.70;;;5.93;;
49758;SDS011;70329;45.524;10.194;2023-06-14T13:59:21;9.45;;;6.55;;
49758;SDS011;70329;45.524;10.194;2023-06-14T14:01:48;14.40;;;5.18;;
49758;SDS011;70329;45.524;10.194;2023-06-14T14:04:15;13.20;;;7.97;;
49758;SDS011;70329;45.524;10.194;2023-06-14T14:06:42;10.38;;;5.78;;
49758;SDS011;70329;45.524;10.194;2023-06-14T14:09:08;14.90;;;5.03;;
49758;SDS011;70329;45.524;10.194;2023-06-14T14:11:35;8.15;;;6.15;;
49758;SDS011;70329;45.524;10.194;2023-06-14T14:14:02;12.20;;;4.57;;
49758;SDS011;70329;45.524;10.194;2023-06-14T14:16:29;7.50;;;4.15;;
49758;SDS011;70329;45.524;10.194;2023-06-14T14:18:56;6.28;;;4.18;;
49758;SDS011;70329;45.524;10.194;2023-06-14T14:21:22;7.57;;;4.47;;
49758;SDS011;70329;45.524;10.194;2023-06-14T14:23:49;8.23;;;4.47;;
49758;SDS011;70329;45.524;10.194;2023-06-14T14:26:16;9.23;;;3.80;;
49758;SDS011;70329;45.524;10.194;2023-06-14T14:28:42;6.72;;;4.15;;
49758;SDS011;70329;45.524;10.194;2023-06-14T14:31:09;7.35;;;4.00;;
49758;SDS011;70329;45.524;10.194;2023-06-14T14:33:35;8.45;;;3.80;;
49758;SDS011;70329;45.524;10.194;2023-06-14T14:36:01;13.88;;;4.30;;
49758;SDS011;70329;45.524;10.194;2023-06-14T14:38:30;8.23;;;3.75;;
49758;SDS011;70329;45.524;10.194;2023-06-14T14:40:56;23.40;;;14.88;;
49758;SDS011;70329;45.524;10.194;2023-06-14T14:43:23;12.38;;;6.30;;
49758;SDS011;70329;45.524;10.194;2023-06-14T14:45:50;22.10;;;15.40;;
49758;SDS011;70329;45.524;10.194;2023-06-14T14:48:17;12.07;;;7.65;;
49758;SDS011;70329;45.524;10.194;2023-06-14T14:50:43;7.68;;;4.10;;
49758;SDS011;70329;45.524;10.194;2023-06-14T14:53:09;7.72;;;4.70;;
49758;SDS011;70329;45.524;10.194;2023-06-14T14:55:36;7.18;;;4.25;;
49758;SDS011;70329;45.524;10.194;2023-06-14T14:58:03;5.30;;;3.33;;
49758;SDS011;70329;45.524;10.194;2023-06-14T15:00:28;6.68;;;3.75;;
49758;SDS011;70329;45.524;10.194;2023-06-14T15:02:55;5.75;;;3.65;;
49758;SDS011;70329;45.524;10.194;2023-06-14T15:05:21;8.85;;;4.13;;
49758;SDS011;70329;45.524;10.194;2023-06-14T15:07:48;8.48;;;4.30;;
49758;SDS011;70329;45.524;10.194;2023-06-14T15:10:15;8.15;;;4.18;;
49758;SDS011;70329;45.524;10.194;2023-06-14T15:12:41;8.50;;;4.40;;
49758;SDS011;70329;45.524;10.194;2023-06-14T15:15:08;6.65;;;4.20;;
49758;SDS011;70329;45.524;10.194;2023-06-14T15:17:35;6.13;;;3.75;;
49758;SDS011;70329;45.524;10.194;2023-06-14T15:20:02;6.88;;;4.00;;
49758;SDS011;70329;45.524;10.194;2023-06-14T15:22:29;6.35;;;4.15;;
49758;SDS011;70329;45.524;10.194;2023-06-14T15:24:56;7.50;;;4.03;;
49758;SDS011;70329;45.524;10.194;2023-06-14T15:27:23;8.13;;;4.13;;